FNL weather

Northern Colorado Regional Airport
Fort Collins/Loveland, Colorado, United States

Public forecast

Using degrees Fahrenheit for public forecast. Weather courtesy of forecast.io.

Current aviation weather report (METAR) for Northern Colorado Regional Airport

Retrieved 2019/11/17 15:56 UTC (1 hour ago):

KFNL 171556Z AUTO 00000KT 10SM CLR 00/M01 A3015 RMK AO2 SLP217 T00001011 FZRANO

Closest aviation forecast (TAF) to Northern Colorado Regional Airport

Closest forecast is Rocky Mountain Metropolitan Airport, 33.0 nm (61.0 km) S. Retrieved 2019/11/17 12:24 UTC (5 hours ago):

TAF KBJC 171122Z 1712/1812 20006KT P6SM SCT150 SCT220 FM171900 09006KT P6SM SCT150 SCT220 FM172300 13007KT P6SM SCT100 SCT200 FM180100 18006KT P6SM SCT100 BKN200 FM180500 25007KT P6SM SCT100 SCT200